sensor_id;sensor_type;location;lat;lon;timestamp;temperature;humidity
24412;DHT22;12544;46.760;15.942;2022-09-30T00:00:12;12.30;99.90
24412;DHT22;12544;46.760;15.942;2022-09-30T00:02:38;12.30;99.90
24412;DHT22;12544;46.760;15.942;2022-09-30T00:05:03;12.30;99.90
24412;DHT22;12544;46.760;15.942;2022-09-30T00:07:29;12.30;99.90
24412;DHT22;12544;46.760;15.942;2022-09-30T00:09:55;12.40;99.90
24412;DHT22;12544;46.760;15.942;2022-09-30T00:12:21;12.40;99.90
24412;DHT22;12544;46.760;15.942;2022-09-30T00:14:46;12.40;99.90
24412;DHT22;12544;46.760;15.942;2022-09-30T00:17:18;12.40;99.90
24412;DHT22;12544;46.760;15.942;2022-09-30T00:19:43;12.40;99.90
24412;DHT22;12544;46.760;15.942;2022-09-30T00:22:09;12.40;99.90
24412;DHT22;12544;46.760;15.942;2022-09-30T00:24:35;12.50;99.90
24412;DHT22;12544;46.760;15.942;2022-09-30T00:27:00;12.40;99.90
24412;DHT22;12544;46.760;15.942;2022-09-30T00:29:26;12.40;99.90
24412;DHT22;12544;46.760;15.942;2022-09-30T00:31:51;12.40;99.90
24412;DHT22;12544;46.760;15.942;2022-09-30T00:34:16;12.40;99.90
24412;DHT22;12544;46.760;15.942;2022-09-30T00:39:12;12.40;99.90
24412;DHT22;12544;46.760;15.942;2022-09-30T00:41:39;12.30;99.90
24412;DHT22;12544;46.760;15.942;2022-09-30T00:46:49;12.30;99.90
24412;DHT22;12544;46.760;15.942;2022-09-30T00:49:15;12.20;99.90
24412;DHT22;12544;46.760;15.942;2022-09-30T00:51:50;12.20;99.90
24412;DHT22;12544;46.760;15.942;2022-09-30T00:54:19;12.20;99.90
24412;DHT22;12544;46.760;15.942;2022-09-30T00:56:51;12.20;99.90
24412;DHT22;12544;46.760;15.942;2022-09-30T00:59:19;12.20;99.90
24412;DHT22;12544;46.760;15.942;2022-09-30T01:01:48;12.20;99.90
24412;DHT22;12544;46.760;15.942;2022-09-30T01:04:15;12.30;99.90
24412;DHT22;12544;46.760;15.942;2022-09-30T01:06:42;12.30;99.90
24412;DHT22;12544;46.760;15.942;2022-09-30T01:09:08;12.30;99.90
24412;DHT22;12544;46.760;15.942;2022-09-30T01:11:34;12.30;99.90
24412;DHT22;12544;46.760;15.942;2022-09-30T01:14:01;12.30;99.90
24412;DHT22;12544;46.760;15.942;2022-09-30T01:22:22;12.30;99.90
24412;DHT22;12544;46.760;15.942;2022-09-30T01:30:08;12.30;99.90
24412;DHT22;12544;46.760;15.942;2022-09-30T01:50:57;12.10;99.90
24412;DHT22;12544;46.760;15.942;2022-09-30T01:53:26;12.10;99.90
24412;DHT22;12544;46.760;15.942;2022-09-30T01:56:03;12.10;99.90
24412;DHT22;12544;46.760;15.942;2022-09-30T02:01:03;12.20;99.90
24412;DHT22;12544;46.760;15.942;2022-09-30T02:03:32;12.10;99.90
24412;DHT22;12544;46.760;15.942;2022-09-30T02:11:22;12.20;99.90
24412;DHT22;12544;46.760;15.942;2022-09-30T02:13:58;12.20;99.90
24412;DHT22;12544;46.760;15.942;2022-09-30T02:16:39;12.20;99.90
24412;DHT22;12544;46.760;15.942;2022-09-30T02:21:38;12.30;99.90
24412;DHT22;12544;46.760;15.942;2022-09-30T02:24:06;12.30;99.90
24412;DHT22;12544;46.760;15.942;2022-09-30T02:26:36;12.30;99.90
24412;DHT22;12544;46.760;15.942;2022-09-30T02:29:06;12.30;99.90
24412;DHT22;12544;46.760;15.942;2022-09-30T02:31:34;12.30;99.90
24412;DHT22;12544;46.760;15.942;2022-09-30T02:34:06;12.30;99.90
24412;DHT22;12544;46.760;15.942;2022-09-30T02:36:55;12.30;99.90
24412;DHT22;12544;46.760;15.942;2022-09-30T02:39:26;12.30;99.90
24412;DHT22;12544;46.760;15.942;2022-09-30T02:41:56;12.30;99.90
24412;DHT22;12544;46.760;15.942;2022-09-30T02:44:24;12.40;99.90
24412;DHT22;12544;46.760;15.942;2022-09-30T02:49:35;12.40;99.90
24412;DHT22;12544;46.760;15.942;2022-09-30T02:52:09;12.30;99.90
24412;DHT22;12544;46.760;15.942;2022-09-30T02:54:47;12.30;99.90
24412;DHT22;12544;46.760;15.942;2022-09-30T02:59:59;12.30;99.90
24412;DHT22;12544;46.760;15.942;2022-09-30T03:02:25;12.20;99.90
24412;DHT22;12544;46.760;15.942;2022-09-30T03:04:50;12.10;99.90
24412;DHT22;12544;46.760;15.942;2022-09-30T03:07:16;12.10;99.90
24412;DHT22;12544;46.760;15.942;2022-09-30T03:09:43;12.10;99.90
24412;DHT22;12544;46.760;15.942;2022-09-30T03:14:39;12.10;99.90
24412;DHT22;12544;46.760;15.942;2022-09-30T03:17:16;12.10;99.90
24412;DHT22;12544;46.760;15.942;2022-09-30T03:33:00;12.20;99.90
24412;DHT22;12544;46.760;15.942;2022-09-30T03:37:57;12.00;99.90
24412;DHT22;12544;46.760;15.942;2022-09-30T03:42:56;12.00;99.90
24412;DHT22;12544;46.760;15.942;2022-09-30T03:45:28;12.10;99.90
24412;DHT22;12544;46.760;15.942;2022-09-30T03:47:57;12.00;99.90
24412;DHT22;12544;46.760;15.942;2022-09-30T03:50:23;12.00;99.90
24412;DHT22;12544;46.760;15.942;2022-09-30T03:52:50;11.80;99.90
24412;DHT22;12544;46.760;15.942;2022-09-30T03:55:15;12.00;99.90
24412;DHT22;12544;46.760;15.942;2022-09-30T03:57:41;12.00;99.90
24412;DHT22;12544;46.760;15.942;2022-09-30T04:00:09;11.90;99.90
24412;DHT22;12544;46.760;15.942;2022-09-30T04:02:35;11.90;99.90
24412;DHT22;12544;46.760;15.942;2022-09-30T04:05:02;11.80;99.90
24412;DHT22;12544;46.760;15.942;2022-09-30T04:07:28;11.90;99.90
24412;DHT22;12544;46.760;15.942;2022-09-30T04:09:54;12.00;99.90
24412;DHT22;12544;46.760;15.942;2022-09-30T04:12:20;12.00;99.90
24412;DHT22;12544;46.760;15.942;2022-09-30T04:14:46;12.00;99.90
24412;DHT22;12544;46.760;15.942;2022-09-30T04:17:11;12.00;99.90
24412;DHT22;12544;46.760;15.942;2022-09-30T04:19:37;12.00;99.90
24412;DHT22;12544;46.760;15.942;2022-09-30T04:22:05;12.00;99.90
24412;DHT22;12544;46.760;15.942;2022-09-30T04:24:30;12.10;99.90
24412;DHT22;12544;46.760;15.942;2022-09-30T04:26:56;12.10;99.90
24412;DHT22;12544;46.760;15.942;2022-09-30T04:29:21;12.10;99.90
24412;DHT22;12544;46.760;15.942;2022-09-30T04:31:47;12.00;99.90
24412;DHT22;12544;46.760;15.942;2022-09-30T04:34:12;12.00;99.90
24412;DHT22;12544;46.760;15.942;2022-09-30T04:36:38;12.00;99.90
24412;DHT22;12544;46.760;15.942;2022-09-30T04:39:03;11.90;99.90
24412;DHT22;12544;46.760;15.942;2022-09-30T04:41:29;12.00;99.90
24412;DHT22;12544;46.760;15.942;2022-09-30T04:43:56;11.90;99.90
24412;DHT22;12544;46.760;15.942;2022-09-30T04:46:22;11.90;99.90
24412;DHT22;12544;46.760;15.942;2022-09-30T04:48:48;11.90;99.90
24412;DHT22;12544;46.760;15.942;2022-09-30T04:51:14;12.00;99.90
24412;DHT22;12544;46.760;15.942;2022-09-30T04:53:40;12.00;99.90
24412;DHT22;12544;46.760;15.942;2022-09-30T04:56:06;12.00;99.90
24412;DHT22;12544;46.760;15.942;2022-09-30T04:58:32;12.00;99.90
24412;DHT22;12544;46.760;15.942;2022-09-30T05:01:05;12.00;99.90
24412;DHT22;12544;46.760;15.942;2022-09-30T05:03:31;12.00;99.90
24412;DHT22;12544;46.760;15.942;2022-09-30T05:05:56;12.10;99.90
24412;DHT22;12544;46.760;15.942;2022-09-30T05:08:22;12.10;99.90
24412;DHT22;12544;46.760;15.942;2022-09-30T05:10:54;12.00;99.90
24412;DHT22;12544;46.760;15.942;2022-09-30T05:13:22;12.10;99.90
24412;DHT22;12544;46.760;15.942;2022-09-30T05:15:47;12.20;99.90
24412;DHT22;12544;46.760;15.942;2022-09-30T05:18:13;12.20;99.90
24412;DHT22;12544;46.760;15.942;2022-09-30T05:20:38;12.20;99.90
24412;DHT22;12544;46.760;15.942;2022-09-30T05:23:04;12.30;99.90
24412;DHT22;12544;46.760;15.942;2022-09-30T05:25:30;12.30;99.90
24412;DHT22;12544;46.760;15.942;2022-09-30T05:27:56;12.30;99.90
24412;DHT22;12544;46.760;15.942;2022-09-30T05:30:21;12.30;99.90
24412;DHT22;12544;46.760;15.942;2022-09-30T05:32:46;12.30;99.90
24412;DHT22;12544;46.760;15.942;2022-09-30T05:35:12;12.30;99.90
24412;DHT22;12544;46.760;15.942;2022-09-30T05:37:38;12.40;99.90
24412;DHT22;12544;46.760;15.942;2022-09-30T05:40:04;12.30;99.90
24412;DHT22;12544;46.760;15.942;2022-09-30T05:42:30;12.40;99.90
24412;DHT22;12544;46.760;15.942;2022-09-30T05:44:57;12.40;99.90
24412;DHT22;12544;46.760;15.942;2022-09-30T05:47:22;12.40;99.90
24412;DHT22;12544;46.760;15.942;2022-09-30T05:49:48;12.40;99.90
24412;DHT22;12544;46.760;15.942;2022-09-30T05:52:15;12.40;99.90
24412;DHT22;12544;46.760;15.942;2022-09-30T05:54:41;12.40;99.90
24412;DHT22;12544;46.760;15.942;2022-09-30T05:57:07;12.40;99.90
24412;DHT22;12544;46.760;15.942;2022-09-30T05:59:32;12.40;99.90
24412;DHT22;12544;46.760;15.942;2022-09-30T06:01:58;12.50;99.90
24412;DHT22;12544;46.760;15.942;2022-09-30T06:04:23;12.50;99.90
24412;DHT22;12544;46.760;15.942;2022-09-30T06:06:49;12.50;99.90
24412;DHT22;12544;46.760;15.942;2022-09-30T06:09:15;12.50;99.90
24412;DHT22;12544;46.760;15.942;2022-09-30T06:11:40;12.40;99.90
24412;DHT22;12544;46.760;15.942;2022-09-30T06:14:07;12.50;99.90
24412;DHT22;12544;46.760;15.942;2022-09-30T06:16:32;12.50;99.90
24412;DHT22;12544;46.760;15.942;2022-09-30T06:18:58;12.50;99.90
24412;DHT22;12544;46.760;15.942;2022-09-30T06:21:23;12.50;99.90
24412;DHT22;12544;46.760;15.942;2022-09-30T06:23:49;12.50;99.90
24412;DHT22;12544;46.760;15.942;2022-09-30T06:26:14;12.60;99.90
24412;DHT22;12544;46.760;15.942;2022-09-30T06:28:40;12.60;99.90
24412;DHT22;12544;46.760;15.942;2022-09-30T06:31:06;12.60;99.90
24412;DHT22;12544;46.760;15.942;2022-09-30T06:33:32;12.60;99.90
24412;DHT22;12544;46.760;15.942;2022-09-30T06:35:58;12.60;99.90
24412;DHT22;12544;46.760;15.942;2022-09-30T06:38:23;12.60;99.90
24412;DHT22;12544;46.760;15.942;2022-09-30T06:40:50;12.60;99.90
24412;DHT22;12544;46.760;15.942;2022-09-30T06:43:16;12.60;99.90
24412;DHT22;12544;46.760;15.942;2022-09-30T06:45:43;12.70;99.90
24412;DHT22;12544;46.760;15.942;2022-09-30T06:48:09;12.70;99.90
24412;DHT22;12544;46.760;15.942;2022-09-30T06:50:34;12.60;99.90
24412;DHT22;12544;46.760;15.942;2022-09-30T06:53:01;12.60;99.90
24412;DHT22;12544;46.760;15.942;2022-09-30T06:55:27;12.60;99.90
24412;DHT22;12544;46.760;15.942;2022-09-30T06:57:53;12.50;99.90
24412;DHT22;12544;46.760;15.942;2022-09-30T07:00:19;12.40;99.90
24412;DHT22;12544;46.760;15.942;2022-09-30T07:02:46;12.50;99.90
24412;DHT22;12544;46.760;15.942;2022-09-30T07:05:13;12.50;99.90
24412;DHT22;12544;46.760;15.942;2022-09-30T07:07:39;12.50;99.90
24412;DHT22;12544;46.760;15.942;2022-09-30T07:10:06;12.50;99.90
24412;DHT22;12544;46.760;15.942;2022-09-30T07:12:32;12.50;99.90
24412;DHT22;12544;46.760;15.942;2022-09-30T07:14:58;12.50;99.90
24412;DHT22;12544;46.760;15.942;2022-09-30T07:17:25;12.40;99.90
24412;DHT22;12544;46.760;15.942;2022-09-30T07:19:50;12.50;99.90
24412;DHT22;12544;46.760;15.942;2022-09-30T07:22:16;12.50;99.90
24412;DHT22;12544;46.760;15.942;2022-09-30T07:24:58;12.50;99.90
24412;DHT22;12544;46.760;15.942;2022-09-30T07:27:26;12.50;99.90
24412;DHT22;12544;46.760;15.942;2022-09-30T07:29:52;12.60;99.90
24412;DHT22;12544;46.760;15.942;2022-09-30T07:32:19;12.70;99.90
24412;DHT22;12544;46.760;15.942;2022-09-30T07:34:45;12.70;99.90
24412;DHT22;12544;46.760;15.942;2022-09-30T07:37:11;12.80;99.90
24412;DHT22;12544;46.760;15.942;2022-09-30T07:39:41;12.90;99.90
24412;DHT22;12544;46.760;15.942;2022-09-30T07:42:08;12.90;99.90
24412;DHT22;12544;46.760;15.942;2022-09-30T07:44:33;13.00;99.90
24412;DHT22;12544;46.760;15.942;2022-09-30T07:47:02;13.20;99.90
24412;DHT22;12544;46.760;15.942;2022-09-30T07:49:28;13.20;99.90
24412;DHT22;12544;46.760;15.942;2022-09-30T07:51:55;13.30;99.90
24412;DHT22;12544;46.760;15.942;2022-09-30T07:54:22;13.30;99.90
24412;DHT22;12544;46.760;15.942;2022-09-30T07:56:48;13.40;99.90
24412;DHT22;12544;46.760;15.942;2022-09-30T07:59:17;13.50;99.90
24412;DHT22;12544;46.760;15.942;2022-09-30T08:01:43;13.60;99.90
24412;DHT22;12544;46.760;15.942;2022-09-30T08:04:09;13.60;99.90
24412;DHT22;12544;46.760;15.942;2022-09-30T08:06:37;13.80;99.90
24412;DHT22;12544;46.760;15.942;2022-09-30T08:09:02;13.90;99.90
24412;DHT22;12544;46.760;15.942;2022-09-30T08:11:31;14.00;99.90
24412;DHT22;12544;46.760;15.942;2022-09-30T08:13:56;14.00;99.90
24412;DHT22;12544;46.760;15.942;2022-09-30T08:16:22;14.00;99.90
24412;DHT22;12544;46.760;15.942;2022-09-30T08:18:48;13.90;99.90
24412;DHT22;12544;46.760;15.942;2022-09-30T08:21:14;13.90;99.90
24412;DHT22;12544;46.760;15.942;2022-09-30T08:23:39;13.90;99.90
24412;DHT22;12544;46.760;15.942;2022-09-30T08:26:09;13.90;99.90
24412;DHT22;12544;46.760;15.942;2022-09-30T08:28:35;13.80;99.90
24412;DHT22;12544;46.760;15.942;2022-09-30T08:31:03;13.90;99.90
24412;DHT22;12544;46.760;15.942;2022-09-30T08:33:28;13.80;99.90
24412;DHT22;12544;46.760;15.942;2022-09-30T08:35:54;13.90;99.90
24412;DHT22;12544;46.760;15.942;2022-09-30T08:38:19;13.90;99.90
24412;DHT22;12544;46.760;15.942;2022-09-30T08:46:29;14.00;99.90
24412;DHT22;12544;46.760;15.942;2022-09-30T08:49:01;14.00;99.90
24412;DHT22;12544;46.760;15.942;2022-09-30T08:51:29;14.20;99.90
24412;DHT22;12544;46.760;15.942;2022-09-30T08:53:56;14.40;99.90
24412;DHT22;12544;46.760;15.942;2022-09-30T08:56:24;14.50;99.90
24412;DHT22;12544;46.760;15.942;2022-09-30T08:58:52;14.70;99.90
24412;DHT22;12544;46.760;15.942;2022-09-30T09:01:25;14.80;99.90
24412;DHT22;12544;46.760;15.942;2022-09-30T09:03:53;14.90;99.90
24412;DHT22;12544;46.760;15.942;2022-09-30T09:09:06;15.10;99.90
24412;DHT22;12544;46.760;15.942;2022-09-30T09:19:36;15.60;99.90
24412;DHT22;12544;46.760;15.942;2022-09-30T09:22:02;15.70;99.90
24412;DHT22;12544;46.760;15.942;2022-09-30T09:27:09;15.80;99.90
24412;DHT22;12544;46.760;15.942;2022-09-30T09:29:40;15.80;99.90
24412;DHT22;12544;46.760;15.942;2022-09-30T09:32:10;15.90;99.90
24412;DHT22;12544;46.760;15.942;2022-09-30T09:34:37;15.90;99.90
24412;DHT22;12544;46.760;15.942;2022-09-30T09:37:05;15.80;99.90
24412;DHT22;12544;46.760;15.942;2022-09-30T09:44:44;15.90;99.90
24412;DHT22;12544;46.760;15.942;2022-09-30T09:47:14;15.90;99.90
24412;DHT22;12544;46.760;15.942;2022-09-30T09:54:36;16.00;99.90
24412;DHT22;12544;46.760;15.942;2022-09-30T09:57:06;16.10;99.90
24412;DHT22;12544;46.760;15.942;2022-09-30T09:59:33;16.20;99.90
24412;DHT22;12544;46.760;15.942;2022-09-30T10:01:59;16.30;99.90
24412;DHT22;12544;46.760;15.942;2022-09-30T10:04:25;16.30;99.90
24412;DHT22;12544;46.760;15.942;2022-09-30T10:06:53;16.30;99.90
24412;DHT22;12544;46.760;15.942;2022-09-30T10:11:47;16.40;99.90
24412;DHT22;12544;46.760;15.942;2022-09-30T10:14:15;16.50;99.90
24412;DHT22;12544;46.760;15.942;2022-09-30T10:16:42;16.50;99.90
24412;DHT22;12544;46.760;15.942;2022-09-30T10:19:21;16.60;99.90
24412;DHT22;12544;46.760;15.942;2022-09-30T10:21:49;16.60;99.90
24412;DHT22;12544;46.760;15.942;2022-09-30T10:24:18;16.60;99.90
24412;DHT22;12544;46.760;15.942;2022-09-30T10:26:44;16.60;99.90
24412;DHT22;12544;46.760;15.942;2022-09-30T10:29:23;16.60;99.90
24412;DHT22;12544;46.760;15.942;2022-09-30T10:31:49;16.70;99.90
24412;DHT22;12544;46.760;15.942;2022-09-30T10:34:33;16.70;99.90
24412;DHT22;12544;46.760;15.942;2022-09-30T10:37:00;16.70;99.90
24412;DHT22;12544;46.760;15.942;2022-09-30T10:39:27;16.70;99.90
24412;DHT22;12544;46.760;15.942;2022-09-30T10:44:28;16.70;99.90
24412;DHT22;12544;46.760;15.942;2022-09-30T10:46:58;16.50;99.90
24412;DHT22;12544;46.760;15.942;2022-09-30T10:49:33;16.50;99.90
24412;DHT22;12544;46.760;15.942;2022-09-30T10:52:00;16.60;99.90
24412;DHT22;12544;46.760;15.942;2022-09-30T10:54:34;16.70;99.90
24412;DHT22;12544;46.760;15.942;2022-09-30T10:57:00;16.90;99.90
24412;DHT22;12544;46.760;15.942;2022-09-30T10:59:33;17.10;99.90
24412;DHT22;12544;46.760;15.942;2022-09-30T11:02:21;17.20;99.90
24412;DHT22;12544;46.760;15.942;2022-09-30T11:05:10;17.20;99.90
24412;DHT22;12544;46.760;15.942;2022-09-30T11:07:41;17.20;99.90
24412;DHT22;12544;46.760;15.942;2022-09-30T11:10:18;17.20;99.90
24412;DHT22;12544;46.760;15.942;2022-09-30T11:12:47;17.10;99.90
24412;DHT22;12544;46.760;15.942;2022-09-30T11:20:14;17.10;99.90
24412;DHT22;12544;46.760;15.942;2022-09-30T11:22:45;17.20;99.90
24412;DHT22;12544;46.760;15.942;2022-09-30T11:25:18;17.40;99.90
24412;DHT22;12544;46.760;15.942;2022-09-30T11:33:23;17.70;99.90
24412;DHT22;12544;46.760;15.942;2022-09-30T11:36:16;17.80;99.90
24412;DHT22;12544;46.760;15.942;2022-09-30T11:46:29;17.60;99.90
24412;DHT22;12544;46.760;15.942;2022-09-30T11:58:50;18.20;99.90
24412;DHT22;12544;46.760;15.942;2022-09-30T12:01:24;18.10;99.90
24412;DHT22;12544;46.760;15.942;2022-09-30T12:03:55;18.10;99.90
24412;DHT22;12544;46.760;15.942;2022-09-30T12:06:32;18.00;99.90
24412;DHT22;12544;46.760;15.942;2022-09-30T12:09:00;17.80;99.90
24412;DHT22;12544;46.760;15.942;2022-09-30T12:11:36;17.60;99.90
24412;DHT22;12544;46.760;15.942;2022-09-30T12:14:05;17.60;99.90
24412;DHT22;12544;46.760;15.942;2022-09-30T12:16:34;17.60;99.90
24412;DHT22;12544;46.760;15.942;2022-09-30T12:21:33;17.80;99.90
24412;DHT22;12544;46.760;15.942;2022-09-30T12:24:03;17.80;99.90
24412;DHT22;12544;46.760;15.942;2022-09-30T12:26:30;17.90;99.90
24412;DHT22;12544;46.760;15.942;2022-09-30T12:28:57;18.00;99.90
24412;DHT22;12544;46.760;15.942;2022-09-30T12:34:28;17.90;99.90
24412;DHT22;12544;46.760;15.942;2022-09-30T12:37:03;17.90;99.90
24412;DHT22;12544;46.760;15.942;2022-09-30T12:44:48;17.80;99.90
24412;DHT22;12544;46.760;15.942;2022-09-30T12:49:46;17.80;99.90
24412;DHT22;12544;46.760;15.942;2022-09-30T12:52:13;17.80;99.90
24412;DHT22;12544;46.760;15.942;2022-09-30T12:54:59;18.00;99.90
24412;DHT22;12544;46.760;15.942;2022-09-30T12:57:27;18.10;99.90
24412;DHT22;12544;46.760;15.942;2022-09-30T13:00:02;18.30;99.90
24412;DHT22;12544;46.760;15.942;2022-09-30T13:02:38;18.40;99.90
24412;DHT22;12544;46.760;15.942;2022-09-30T13:15:40;18.70;99.90
24412;DHT22;12544;46.760;15.942;2022-09-30T13:28:48;18.60;99.90
24412;DHT22;12544;46.760;15.942;2022-09-30T13:31:21;18.40;99.90
24412;DHT22;12544;46.760;15.942;2022-09-30T13:34:02;18.30;99.90
24412;DHT22;12544;46.760;15.942;2022-09-30T13:41:46;18.30;99.90
24412;DHT22;12544;46.760;15.942;2022-09-30T13:46:48;18.50;99.90
24412;DHT22;12544;46.760;15.942;2022-09-30T13:49:20;18.50;99.90
24412;DHT22;12544;46.760;15.942;2022-09-30T13:51:49;18.40;99.90
24412;DHT22;12544;46.760;15.942;2022-09-30T13:56:43;18.40;99.90
24412;DHT22;12544;46.760;15.942;2022-09-30T14:04:55;18.10;99.90
24412;DHT22;12544;46.760;15.942;2022-09-30T14:15:20;18.00;99.90
24412;DHT22;12544;46.760;15.942;2022-09-30T14:22:48;17.80;99.90
24412;DHT22;12544;46.760;15.942;2022-09-30T14:25:22;17.70;99.90
24412;DHT22;12544;46.760;15.942;2022-09-30T14:28:21;17.70;99.90
24412;DHT22;12544;46.760;15.942;2022-09-30T14:30:40;17.50;99.90
24412;DHT22;12544;46.760;15.942;2022-09-30T14:33:10;17.50;99.90
24412;DHT22;12544;46.760;15.942;2022-09-30T14:35:38;17.50;99.90
24412;DHT22;12544;46.760;15.942;2022-09-30T14:38:19;17.50;99.90
24412;DHT22;12544;46.760;15.942;2022-09-30T14:40:57;17.40;99.90
24412;DHT22;12544;46.760;15.942;2022-09-30T14:43:26;17.40;99.90
24412;DHT22;12544;46.760;15.942;2022-09-30T14:45:58;17.50;99.90
24412;DHT22;12544;46.760;15.942;2022-09-30T14:48:26;17.30;99.90
24412;DHT22;12544;46.760;15.942;2022-09-30T14:51:36;17.30;99.90
24412;DHT22;12544;46.760;15.942;2022-09-30T14:53:53;17.30;99.90
24412;DHT22;12544;46.760;15.942;2022-09-30T14:56:30;17.40;99.90
24412;DHT22;12544;46.760;15.942;2022-09-30T14:58:56;17.40;99.90
24412;DHT22;12544;46.760;15.942;2022-09-30T15:01:27;17.40;99.90
24412;DHT22;12544;46.760;15.942;2022-09-30T15:04:04;17.40;99.90
24412;DHT22;12544;46.760;15.942;2022-09-30T15:06:34;17.40;99.90
24412;DHT22;12544;46.760;15.942;2022-09-30T15:09:07;17.30;99.90
24412;DHT22;12544;46.760;15.942;2022-09-30T15:11:38;17.40;99.90
24412;DHT22;12544;46.760;15.942;2022-09-30T15:14:08;17.40;99.90
24412;DHT22;12544;46.760;15.942;2022-09-30T15:16:42;17.40;99.90
24412;DHT22;12544;46.760;15.942;2022-09-30T15:19:22;17.40;99.90
24412;DHT22;12544;46.760;15.942;2022-09-30T15:21:57;17.40;99.90
24412;DHT22;12544;46.760;15.942;2022-09-30T15:24:26;17.40;99.90
24412;DHT22;12544;46.760;15.942;2022-09-30T15:26:56;17.40;99.90
24412;DHT22;12544;46.760;15.942;2022-09-30T15:29:22;17.30;99.90
24412;DHT22;12544;46.760;15.942;2022-09-30T15:31:49;17.20;99.90
24412;DHT22;12544;46.760;15.942;2022-09-30T15:34:18;17.20;99.90
24412;DHT22;12544;46.760;15.942;2022-09-30T15:36:44;17.10;99.90
24412;DHT22;12544;46.760;15.942;2022-09-30T15:39:24;17.00;99.90
24412;DHT22;12544;46.760;15.942;2022-09-30T15:42:11;17.00;99.90
24412;DHT22;12544;46.760;15.942;2022-09-30T15:44:37;17.00;99.90
24412;DHT22;12544;46.760;15.942;2022-09-30T15:47:06;17.00;99.90
24412;DHT22;12544;46.760;15.942;2022-09-30T15:54:46;17.00;99.90
24412;DHT22;12544;46.760;15.942;2022-09-30T16:00:04;17.00;99.90
24412;DHT22;12544;46.760;15.942;2022-09-30T16:02:32;16.90;99.90
24412;DHT22;12544;46.760;15.942;2022-09-30T16:04:58;16.80;99.90
24412;DHT22;12544;46.760;15.942;2022-09-30T16:07:26;16.70;99.90
24412;DHT22;12544;46.760;15.942;2022-09-30T16:09:52;16.60;99.90
24412;DHT22;12544;46.760;15.942;2022-09-30T16:12:20;16.60;99.90
24412;DHT22;12544;46.760;15.942;2022-09-30T16:19:50;16.60;99.90
24412;DHT22;12544;46.760;15.942;2022-09-30T16:24:58;16.60;99.90
24412;DHT22;12544;46.760;15.942;2022-09-30T16:27:25;16.60;99.90
24412;DHT22;12544;46.760;15.942;2022-09-30T16:29:55;16.60;99.90
24412;DHT22;12544;46.760;15.942;2022-09-30T16:32:22;16.50;99.90
24412;DHT22;12544;46.760;15.942;2022-09-30T16:34:47;16.50;99.90
24412;DHT22;12544;46.760;15.942;2022-09-30T16:37:16;16.50;99.90
24412;DHT22;12544;46.760;15.942;2022-09-30T16:39:42;16.50;99.90
24412;DHT22;12544;46.760;15.942;2022-09-30T16:42:10;16.40;99.90
24412;DHT22;12544;46.760;15.942;2022-09-30T16:44:44;16.40;99.90
24412;DHT22;12544;46.760;15.942;2022-09-30T16:47:13;16.40;99.90
24412;DHT22;12544;46.760;15.942;2022-09-30T16:49:39;16.40;99.90
24412;DHT22;12544;46.760;15.942;2022-09-30T16:52:07;16.30;99.90
24412;DHT22;12544;46.760;15.942;2022-09-30T16:54:32;16.30;99.90
24412;DHT22;12544;46.760;15.942;2022-09-30T16:56:58;16.30;99.90
24412;DHT22;12544;46.760;15.942;2022-09-30T16:59:23;16.30;99.90
24412;DHT22;12544;46.760;15.942;2022-09-30T17:01:49;16.30;99.90
24412;DHT22;12544;46.760;15.942;2022-09-30T17:04:14;16.30;99.90
24412;DHT22;12544;46.760;15.942;2022-09-30T17:06:40;16.20;99.90
24412;DHT22;12544;46.760;15.942;2022-09-30T17:09:05;16.20;99.90
24412;DHT22;12544;46.760;15.942;2022-09-30T17:11:31;16.20;99.90
24412;DHT22;12544;46.760;15.942;2022-09-30T17:13:58;16.10;99.90
24412;DHT22;12544;46.760;15.942;2022-09-30T17:16:24;16.00;99.90
24412;DHT22;12544;46.760;15.942;2022-09-30T17:18:50;16.00;99.90
24412;DHT22;12544;46.760;15.942;2022-09-30T17:21:16;16.00;99.90
24412;DHT22;12544;46.760;15.942;2022-09-30T17:23:43;15.90;99.90
24412;DHT22;12544;46.760;15.942;2022-09-30T17:26:09;15.90;99.90
24412;DHT22;12544;46.760;15.942;2022-09-30T17:28:35;15.90;99.90
24412;DHT22;12544;46.760;15.942;2022-09-30T17:31:00;15.90;99.90
24412;DHT22;12544;46.760;15.942;2022-09-30T17:33:29;15.80;99.90
24412;DHT22;12544;46.760;15.942;2022-09-30T17:35:59;15.70;99.90
24412;DHT22;12544;46.760;15.942;2022-09-30T17:38:25;15.70;99.90
24412;DHT22;12544;46.760;15.942;2022-09-30T17:40:51;15.70;99.90
24412;DHT22;12544;46.760;15.942;2022-09-30T17:43:35;15.70;99.90
24412;DHT22;12544;46.760;15.942;2022-09-30T17:46:01;15.60;99.90
24412;DHT22;12544;46.760;15.942;2022-09-30T17:48:26;15.70;99.90
24412;DHT22;12544;46.760;15.942;2022-09-30T17:50:52;15.70;99.90
24412;DHT22;12544;46.760;15.942;2022-09-30T17:53:19;15.70;99.90
24412;DHT22;12544;46.760;15.942;2022-09-30T17:56:04;15.60;99.90
24412;DHT22;12544;46.760;15.942;2022-09-30T17:58:33;15.60;99.90
24412;DHT22;12544;46.760;15.942;2022-09-30T18:01:04;15.50;99.90
24412;DHT22;12544;46.760;15.942;2022-09-30T18:03:31;15.40;99.90
24412;DHT22;12544;46.760;15.942;2022-09-30T18:05:57;15.30;99.90
24412;DHT22;12544;46.760;15.942;2022-09-30T18:08:23;15.20;99.90
24412;DHT22;12544;46.760;15.942;2022-09-30T18:10:49;15.10;99.90
24412;DHT22;12544;46.760;15.942;2022-09-30T18:13:17;15.00;99.90
24412;DHT22;12544;46.760;15.942;2022-09-30T18:15:45;15.00;99.90
24412;DHT22;12544;46.760;15.942;2022-09-30T18:18:12;15.00;99.90
24412;DHT22;12544;46.760;15.942;2022-09-30T18:20:41;15.00;99.90
24412;DHT22;12544;46.760;15.942;2022-09-30T18:23:08;15.00;99.90
24412;DHT22;12544;46.760;15.942;2022-09-30T18:25:34;15.00;99.90
24412;DHT22;12544;46.760;15.942;2022-09-30T18:28:00;15.00;99.90
24412;DHT22;12544;46.760;15.942;2022-09-30T18:30:26;15.00;99.90
24412;DHT22;12544;46.760;15.942;2022-09-30T18:32:52;14.90;99.90
24412;DHT22;12544;46.760;15.942;2022-09-30T18:35:19;15.00;99.90
24412;DHT22;12544;46.760;15.942;2022-09-30T18:37:45;14.90;99.90
24412;DHT22;12544;46.760;15.942;2022-09-30T18:40:14;14.80;99.90
24412;DHT22;12544;46.760;15.942;2022-09-30T18:42:43;14.80;99.90
24412;DHT22;12544;46.760;15.942;2022-09-30T18:45:09;14.80;99.90
24412;DHT22;12544;46.760;15.942;2022-09-30T18:47:40;14.80;99.90
24412;DHT22;12544;46.760;15.942;2022-09-30T18:50:09;14.80;99.90
24412;DHT22;12544;46.760;15.942;2022-09-30T18:52:35;14.80;99.90
24412;DHT22;12544;46.760;15.942;2022-09-30T18:55:01;14.80;99.90